Bookmark and Share
Track history (hours):
 

Drifting buoy 51532

Last reported at 2013-Oct-17 02:24 UTC. Time now 2014-Apr-24 06:00 UTC.
Position S 23°13' W 166°33'.
Warning: this ship's position is months out of date.

Water temperature 25.2 ° C

NotesDate/timePositionNaut miles runAvg speedWind from/ knotsBaromVisibWave heightAir tempDewpointWater temp
2013-Oct-17 02:24S 23°13' W 166°33'0 0.0 25.2
2013-Oct-17 02:23S 23°13' W 166°33'2 0.7 25.2
2013-Oct-17 00:06S 23°12' W 166°33'2 0.7 24.7
2013-Oct-16 21:19S 23°10' W 166°32'0 0.0 24.2
2013-Oct-16 20:50S 23°10' W 166°32'0 0.0 24.2
2013-Oct-16 19:57S 23°10' W 166°32'0 1.1 24.1
2013-Oct-16 19:36S 23°10' W 166°32'1 0.3 24.0
2013-Oct-16 16:17S 23°09' W 166°32'0 0.2 24.1
2013-Oct-16 15:08S 23°09' W 166°32'0 0.3 24.1
2013-Oct-16 13:49S 23°08' W 166°32'1 0.5 24.1
2013-Oct-16 11:31S 23°07' W 166°31'1 0.6 24.1
2013-Oct-16 10:29S 23°08' W 166°31'1 1.8 24.1
2013-Oct-16 10:02S 23°07' W 166°31'0 0.0 24.1
2013-Oct-16 08:49S 23°07' W 166°31'0 1.1 24.1
2013-Oct-16 08:23S 23°07' W 166°31'0 0.0 24.1
2013-Oct-16 08:21S 23°07' W 166°31'0 0.7 24.1
2013-Oct-16 08:03S 23°07' W 166°31'1 1.2 24.1
2013-Oct-16 07:07S 23°06' W 166°31'0 0.0 24.1
2013-Oct-16 05:37S 23°06' W 166°31'0 0.3 24.2
2013-Oct-16 04:10S 23°06' W 166°31'0 1.1 24.2
2013-Oct-16 03:58S 23°06' W 166°31'0 4.4 24.2
2013-Oct-16 03:54S 23°05' W 166°31'0 0.1 24.2
2013-Oct-16 02:34S 23°06' W 166°31'1 3.9 24.2
2013-Oct-16 02:23S 23°05' W 166°30'0 0.1 24.2
2013-Oct-16 01:58S 23°06' W 166°30'0 0.7 24.2
2013-Oct-16 01:53S 23°05' W 166°30'1 0.4 24.2
2013-Oct-16 00:17S 23°05' W 166°30'2 0.7 24.1
2013-Oct-15 21:31S 23°03' W 166°29'0 1.8 24.1
2013-Oct-15 21:15S 23°04' W 166°29'0 0.5 24.1
2013-Oct-15 20:19S 23°03' W 166°29'0 0.6 24.0
2013-Oct-15 19:45S 23°03' W 166°29'1 5.5 24.0
2013-Oct-15 19:29S 23°02' W 166°29'0 0.0 24.0
2013-Oct-15 18:40S 23°02' W 166°29'1 7.3 24.0
2013-Oct-15 18:29S 23°03' W 166°28'1 0.6 24.0
2013-Oct-15 16:50S 23°02' W 166°28'0 0.0 24.0
2013-Oct-15 16:43S 23°02' W 166°28'1 0.6 24.1
2013-Oct-15 15:33S 23°02' W 166°27'1 0.6 24.1
2013-Oct-15 14:03S 23°01' W 166°26'0 0.0 24.1
2013-Oct-15 14:00S 23°01' W 166°26'1 1.9 24.1
2013-Oct-15 13:27S 23°01' W 166°25'0 0.0 24.1
2013-Oct-15 11:43S 23°01' W 166°25'1 0.4 24.1
2013-Oct-15 10:11S 23°00' W 166°25'0 8.2 24.1
2013-Oct-15 10:08S 23°01' W 166°24'0 0.0 24.1
2013-Oct-15 09:12S 23°01' W 166°24'0 0.0 24.1
2013-Oct-15 09:08S 23°01' W 166°24'1 0.4 24.1
2013-Oct-15 07:30S 23°00' W 166°24'1 0.7 24.2
2013-Oct-15 06:07S 22°60' W 166°23'1 0.5 24.2
2013-Oct-15 04:26S 22°59' W 166°23'0 0.0 24.2
2013-Oct-15 04:23S 22°59' W 166°23'1 0.8 24.2
2013-Oct-15 02:44S 22°58' W 166°22'0 3.0 24.3
2013-Oct-15 02:35S 22°58' W 166°22'0 0.0 24.3
2013-Oct-15 02:09S 22°58' W 166°22'0 0.0 24.3
2013-Oct-15 02:04S 22°58' W 166°22'1 0.5 24.3
2013-Oct-15 00:28S 22°57' W 166°21'2 0.7 24.3
2013-Oct-14 21:42S 22°56' W 166°19'0 0.0 24.3
2013-Oct-14 21:37S 22°56' W 166°19'0 0.0 24.3
2013-Oct-14 20:40S 22°56' W 166°19'0 0.6 24.4
2013-Oct-14 20:04S 22°56' W 166°19'0 0.4 24.4
2013-Oct-14 19:56S 22°56' W 166°19'1 1.1 24.4
2013-Oct-14 19:00S 22°55' W 166°19'0 0.0 24.4
2013-Oct-14 18:58S 22°55' W 166°19'0 0.3 24.4
2013-Oct-14 17:19S 22°55' W 166°18'1 0.9 24.4
2013-Oct-14 15:58S 22°54' W 166°17'1 4.0 24.4
2013-Oct-14 15:38S 22°53' W 166°17'0 0.0 24.4
2013-Oct-14 14:14S 22°53' W 166°17'0 0.0 24.5
2013-Oct-14 14:10S 22°53' W 166°17'0 2.4 24.5
2013-Oct-14 14:00S 22°53' W 166°17'1 1.5
2013-Oct-14 13:37S 22°53' W 166°17'2 0.9 24.5
2013-Oct-14 11:56S 22°52' W 166°17'0 0.0 24.5
2013-Oct-14 11:53S 22°52' W 166°17'1 0.5 24.5
2013-Oct-14 10:20S 22°52' W 166°16'0 0.5 24.6
2013-Oct-14 09:32S 22°52' W 166°15'0 0.0 24.6
2013-Oct-14 09:29S 22°52' W 166°15'0 0.5 24.6
2013-Oct-14 08:43S 22°52' W 166°16'110.0 24.6
2013-Oct-14 08:39S 22°52' W 166°15'0 0.5 24.6
2013-Oct-14 07:52S 22°51' W 166°15'1 0.5 24.6
2013-Oct-14 06:36S 22°52' W 166°14'1 0.6 24.7
2013-Oct-14 04:59S 22°51' W 166°14'0 0.0 24.7
2013-Oct-14 04:57S 22°51' W 166°14'0 0.7 24.7
2013-Oct-14 04:33S 22°51' W 166°14'110.8 24.8
2013-Oct-14 04:27S 22°50' W 166°14'0 0.4 24.8
2013-Oct-14 03:17S 22°50' W 166°14'1 3.8 24.8
2013-Oct-14 03:06S 22°49' W 166°14'1 5.0 24.8
2013-Oct-14 02:56S 22°50' W 166°13'0 0.5 24.8
2013-Oct-14 02:19S 22°49' W 166°13'0 4.9 24.8
2013-Oct-14 02:15S 22°50' W 166°13'1 0.9 24.8
2013-Oct-14 01:12S 22°49' W 166°13'1 0.9 24.8
2013-Oct-14 00:39S 22°49' W 166°13'314.5 24.8
2013-Oct-14 00:28S 22°49' W 166°10'1 0.4 24.8
2013-Oct-13 21:53S 22°49' W 166°09'1 1.4 24.8
2013-Oct-13 21:06S 22°49' W 166°10'1 7.7 24.7
2013-Oct-13 20:59S 22°49' W 166°09'1 1.5 24.7
2013-Oct-13 20:19S 22°49' W 166°10'112.1 24.7
2013-Oct-13 20:16S 22°49' W 166°09'0 0.0 24.7
2013-Oct-13 20:11S 22°49' W 166°09'0 0.3 24.7
2013-Oct-13 19:25S 22°49' W 166°09'0 3.2 24.7
2013-Oct-13 19:21S 22°49' W 166°09'1 0.5 24.7
2013-Oct-13 17:53S 22°50' W 166°09'0 0.2 24.7
2013-Oct-13 16:13S 22°50' W 166°09'0 2.3 24.7
2013-Oct-13 16:03S 22°49' W 166°09'0 0.2 24.7
2013-Oct-13 14:25S 22°50' W 166°09'0 0.0 24.8
2013-Oct-13 14:21S 22°50' W 166°09'1 5.8 24.8
2013-Oct-13 14:13S 22°49' W 166°09'0 0.0 24.8
2013-Oct-13 13:46S 22°49' W 166°09'0 0.1 24.8
2013-Oct-13 12:40S 22°49' W 166°09'0 0.3 24.8
2013-Oct-13 12:04S 22°49' W 166°09'1 0.3 24.8
2013-Oct-13 09:53S 22°49' W 166°09'0 2.0 24.8
2013-Oct-13 09:44S 22°49' W 166°08'0 0.0 24.9
2013-Oct-13 09:07S 22°49' W 166°08'0 1.7 24.9
2013-Oct-13 09:01S 22°49' W 166°09'0 0.5 24.9
2013-Oct-13 08:54S 22°49' W 166°09'0 0.0 24.9
2013-Oct-13 08:13S 22°49' W 166°09'0 0.2 24.9
2013-Oct-13 07:13S 22°49' W 166°09'1 0.4 24.9
2013-Oct-13 05:24S 22°48' W 166°08'0 0.0 25.0
2013-Oct-13 04:44S 22°48' W 166°08'0 0.0 25.0
2013-Oct-13 03:51S 22°48' W 166°08'0 2.5 25.0
2013-Oct-13 03:45S 22°48' W 166°08'0 1.0 25.1
2013-Oct-13 03:31S 22°48' W 166°08'1 3.0 25.1
2013-Oct-13 03:09S 22°48' W 166°07'0 0.0 25.1
2013-Oct-13 03:06S 22°48' W 166°07'1 1.2 25.1
2013-Oct-13 02:28S 22°48' W 166°08'1 0.5 25.2
2013-Oct-13 01:25S 22°48' W 166°08'0 0.0 25.2
2013-Oct-13 00:43S 22°48' W 166°08'3 0.7 25.3
2013-Oct-12 20:40S 22°47' W 166°06'0 0.6 25.1
2013-Oct-12 20:34S 22°47' W 166°06'0 0.0 25.1
2013-Oct-12 20:27S 22°47' W 166°06'0 4.1 25.1
2013-Oct-12 20:23S 22°47' W 166°06'0 0.3 25.1
2013-Oct-12 19:45S 22°47' W 166°06'0 0.0 25.0
2013-Oct-12 19:42S 22°47' W 166°06'0 0.5 25.0
2013-Oct-12 18:44S 22°47' W 166°05'0 0.4 25.0
2013-Oct-12 18:24S 22°47' W 166°05'0 0.1 25.0
2013-Oct-12 16:45S 22°46' W 166°05'0 0.1 25.0
2013-Oct-12 14:36S 22°46' W 166°05'0 0.0 25.0
2013-Oct-12 14:32S 22°46' W 166°05'0 1.7 25.0
2013-Oct-12 14:24S 22°46' W 166°05'0 0.0 25.0
2013-Oct-12 13:56S 22°46' W 166°05'1 0.9 25.0
2013-Oct-12 12:52S 22°46' W 166°06'1 1.0 25.0
2013-Oct-12 12:18S 22°45' W 166°06'0 1.1 25.0
2013-Oct-12 12:15S 22°45' W 166°06'1 0.6 25.0
2013-Oct-12 10:12S 22°44' W 166°06'1 1.2 25.0
2013-Oct-12 09:28S 22°43' W 166°06'0 0.0 25.0
2013-Oct-12 09:12S 22°43' W 166°06'1 4.4 25.0
2013-Oct-12 09:04S 22°43' W 166°05'0 0.7 25.0
2013-Oct-12 08:34S 22°43' W 166°06'0 0.5 25.0
2013-Oct-12 07:41S 22°43' W 166°06'0 0.0 25.1
2013-Oct-12 07:26S 22°43' W 166°06'1 0.8 25.1
2013-Oct-12 06:01S 22°42' W 166°05'0 0.4 25.1
2013-Oct-12 04:55S 22°41' W 166°06'0 0.0 25.1
2013-Oct-12 04:23S 22°41' W 166°06'0 1.2 25.2
2013-Oct-12 04:20S 22°41' W 166°06'0 0.1 25.2
2013-Oct-12 03:56S 22°41' W 166°06'0 0.4 25.2
2013-Oct-12 03:17S 22°41' W 166°05'1 1.8 25.2
2013-Oct-12 02:34S 22°40' W 166°06'0 0.0 25.2
2013-Oct-12 01:37S 22°40' W 166°06'1 1.0 25.2
2013-Oct-12 01:00S 22°41' W 166°07'2 1.1 25.2
2013-Oct-11 23:12S 22°39' W 166°08'0 0.1
2013-Oct-11 21:46S 22°39' W 166°08'0 0.7 25.3
2013-Oct-11 21:01S 22°38' W 166°08'1 3.4 25.3
2013-Oct-11 20:52S 22°38' W 166°08'0 1.1 25.3
2013-Oct-11 20:40S 22°38' W 166°08'0 2.0 25.3
2013-Oct-11 20:33S 22°38' W 166°08'1 1.4 25.3
2013-Oct-11 20:07S 22°37' W 166°08'0 0.7 25.3
2013-Oct-11 20:02S 22°37' W 166°09'1 0.7 25.3
2013-Oct-11 19:13S 22°37' W 166°09'0 0.0 25.3
2013-Oct-11 18:56S 22°37' W 166°09'0 0.0 25.3
2013-Oct-11 18:52S 22°37' W 166°09'2 3.6 25.3
2013-Oct-11 18:23S 22°35' W 166°09'0 0.0 25.3
2013-Oct-11 17:15S 22°35' W 166°09'0 0.5 25.3
2013-Oct-11 17:08S 22°35' W 166°09'2 2.6 25.3
2013-Oct-11 16:24S 22°33' W 166°09'0 0.0 25.3
2013-Oct-11 14:44S 22°33' W 166°09'0 6.6 25.3
2013-Oct-11 14:43S 22°33' W 166°09'1 2.4 25.3
2013-Oct-11 14:08S 22°32' W 166°10'0 0.1 25.3
2013-Oct-11 13:03S 22°32' W 166°10'1 1.1 25.4
2013-Oct-11 12:29S 22°31' W 166°10'0 0.0 25.4
2013-Oct-11 12:25S 22°31' W 166°10'2 0.9 25.4
2013-Oct-11 10:44S 22°30' W 166°09'1 0.4 25.4
2013-Oct-11 09:18S 22°30' W 166°08'0 0.8 25.4
2013-Oct-11 08:53S 22°30' W 166°09'0 0.0 25.4
2013-Oct-11 08:07S 22°30' W 166°09'0 0.3 25.4
2013-Oct-11 07:41S 22°30' W 166°09'0 0.9 25.4
2013-Oct-11 07:12S 22°31' W 166°09'0 0.0 25.4
2013-Oct-11 06:30S 22°31' W 166°09'2 1.5 25.4
2013-Oct-11 04:55S 22°31' W 166°11'0 0.0 25.4
2013-Oct-11 04:51S 22°31' W 166°11'0 0.0 25.4
2013-Oct-11 04:20S 22°31' W 166°11'1 0.7 25.4
2013-Oct-11 03:31S 22°30' W 166°11'0 1.0 25.4
2013-Oct-11 03:24S 22°30' W 166°11'0 0.0 25.4
2013-Oct-11 03:11S 22°30' W 166°11'0 1.4 25.4
2013-Oct-11 02:49S 22°30' W 166°11'1 1.0 25.4
2013-Oct-11 01:44S 22°30' W 166°12'0 0.5 25.4
2013-Oct-11 01:12S 22°30' W 166°12'0 0.0 25.4
2013-Oct-11 01:10S 22°30' W 166°12'328.0 25.4
2013-Oct-11 01:03S 22°31' W 166°15'0 0.0 25.4
2013-Oct-10 23:29S 22°31' W 166°15'2 1.7 25.4
2013-Oct-10 22:04S 22°31' W 166°18'0 0.0 25.3
2013-Oct-10 21:19S 22°31' W 166°18'2 9.7 25.3
2013-Oct-10 21:09S 22°31' W 166°20'0 0.0 25.3
2013-Oct-10 20:52S 22°31' W 166°20'0 0.0 25.3
2013-Oct-10 20:23S 22°31' W 166°20'1 1.4 25.3
2013-Oct-10 19:38S 22°31' W 166°21'1 1.5 25.4
2013-Oct-10 19:11S 22°30' W 166°21'0 1.2 25.4
2013-Oct-10 19:08S 22°30' W 166°21'1 2.5 25.4
2013-Oct-10 18:44S 22°30' W 166°23'5 5.0 25.4
2013-Oct-10 17:44S 22°27' W 166°26'0 0.0 25.4
2013-Oct-10 17:43S 22°27' W 166°26'2 1.0 25.5
2013-Oct-10 16:06S 22°26' W 166°27'2 8.4 25.5
2013-Oct-10 15:55S 22°27' W 166°26'2 1.6 25.5
2013-Oct-10 14:58S 22°26' W 166°27'0 4.0 25.5
2013-Oct-10 14:53S 22°26' W 166°27'0 0.0 25.5
2013-Oct-10 14:17S 22°26' W 166°27'3 2.8 25.5
2013-Oct-10 13:14S 22°24' W 166°29'0 0.0 25.5
2013-Oct-10 12:40S 22°24' W 166°29'315.9 25.6
2013-Oct-10 12:27S 22°21' W 166°32'0 0.0 25.6
2013-Oct-10 10:56S 22°21' W 166°32'2 1.7 25.7
2013-Oct-10 09:59S 22°20' W 166°33'0 0.0 25.8
2013-Oct-10 09:32S 22°20' W 166°33'0 1.5 25.9
2013-Oct-10 09:15S 22°19' W 166°33'114.2 25.9
2013-Oct-10 09:11S 22°19' W 166°34'7 4.1 25.9
2013-Oct-10 07:34S 22°16' W 166°40'0 0.0 26.1
2013-Oct-10 05:20S 22°16' W 166°40'0 0.0 26.4
2013-Oct-10 03:44S 22°16' W 166°40'168.2
2013-Oct-10 03:43S 22°15' W 166°41'1 9.7 26.9
2013-Oct-10 03:36S 22°16' W 166°40'1 2.1 26.9
2013-Oct-10 03:03S 22°15' W 166°41'114.0 26.9
2013-Oct-10 02:59S 22°15' W 166°42'1 0.9 26.9
2013-Oct-10 02:01S 22°14' W 166°43'0 0.7 26.8
2013-Oct-10 01:23S 22°14' W 166°43'0 1.7 26.7
2013-Oct-10 01:19S 22°14' W 166°43'3 1.6 26.7
2013-Oct-09 23:41S 22°13' W 166°46'2 1.2 26.3
2013-Oct-09 21:39S 22°11' W 166°48'0 0.8 26.2
2013-Oct-09 21:05S 22°12' W 166°48'1 2.1 26.2
2013-Oct-09 20:43S 22°12' W 166°49'1 1.9 26.1
2013-Oct-09 20:01S 22°11' W 166°50'0 3.5 26.1
2013-Oct-09 19:55S 22°11' W 166°51'0 0.4 26.1
2013-Oct-09 19:24S 22°11' W 166°51'0 0.0 26.0
2013-Oct-09 19:21S 22°11' W 166°51'0 1.7 26.0
2013-Oct-09 19:07S 22°11' W 166°51'0 4.5 26.0
2013-Oct-09 19:02S 22°11' W 166°51'4 5.1 26.0
2013-Oct-09 18:19S 22°11' W 166°55'2 1.0 26.0
2013-Oct-09 16:39S 22°11' W 166°57'0 0.0 26.0
2013-Oct-09 15:09S 22°10' W 166°57'0 0.0 26.1
2013-Oct-09 14:26S 22°10' W 166°57'3 2.6 25.9
2013-Oct-09 13:28S 22°11' W 166°60'0 2.4 26.0
2013-Oct-09 13:25S 22°10' W 166°60'1 1.9 26.0
2013-Oct-09 12:51S 22°11' W 167°01'0 1.4 26.0
2013-Oct-09 12:44S 22°11' W 167°00'3 1.7 26.0
2013-Oct-09 11:07S 22°11' W 167°03'2 1.5 26.0
2013-Oct-09 09:43S 22°11' W 167°06'0 0.0 26.3
2013-Oct-09 09:36S 22°11' W 167°06'1 7.6 26.3
2013-Oct-09 09:29S 22°11' W 167°07'1 1.9 26.3
2013-Oct-09 08:50S 22°11' W 167°08'0 0.0 26.3
2013-Oct-09 08:45S 22°11' W 167°08'1 1.5 26.3
2013-Oct-09 08:07S 22°11' W 167°09'0 1.6 26.3
2013-Oct-09 07:56S 22°11' W 167°09'3 1.3 26.3
2013-Oct-09 05:56S 22°10' W 167°12'2 1.4 26.5
2013-Oct-09 04:18S 22°09' W 167°14'0 1.6 26.6
2013-Oct-09 04:15S 22°09' W 167°14'3 1.3 26.6
2013-Oct-09 02:13S 22°08' W 167°17'0 3.6 26.7
2013-Oct-09 02:12S 22°08' W 167°17'0 0.7 26.7
2013-Oct-09 01:33S 22°08' W 167°17'338.5 27.5
2013-Oct-09 01:29S 22°07' W 167°19'0 0.0 27.5
2013-Oct-08 23:51S 22°07' W 167°19'3 1.1 27.6
2013-Oct-08 21:16S 22°06' W 167°22'0 0.0 26.0
2013-Oct-08 21:09S 22°06' W 167°22'0 0.0 26.0
2013-Oct-08 20:59S 22°06' W 167°22'1 1.9 26.0
2013-Oct-08 20:23S 22°05' W 167°23'0 1.2 25.7
2013-Oct-08 20:19S 22°05' W 167°23'1 1.0 25.7
2013-Oct-08 19:36S 22°05' W 167°24'0 1.6 25.6
2013-Oct-08 19:33S 22°05' W 167°24'0 1.0 25.6
2013-Oct-08 19:28S 22°05' W 167°24'0 5.3 25.6
2013-Oct-08 19:25S 22°05' W 167°24'0 0.5 25.6
2013-Oct-08 18:44S 22°05' W 167°24'1 0.8 25.6
2013-Oct-08 17:09S 22°03' W 167°25'1 0.7 25.6
2013-Oct-08 15:09S 22°03' W 167°26'0 0.0 25.5
2013-Oct-08 13:38S 22°03' W 167°26'1 1.0 25.3
2013-Oct-08 13:02S 22°03' W 167°27'0 0.6 25.3
2013-Oct-08 12:56S 22°03' W 167°27'112.6 25.3
2013-Oct-08 12:49S 22°04' W 167°28'0 0.0 25.3
2013-Oct-08 11:18S 22°04' W 167°28'1 0.6 25.4
2013-Oct-08 09:55S 22°04' W 167°29'0 0.0 25.3
2013-Oct-08 09:54S 22°04' W 167°29'1 1.0 25.3
2013-Oct-08 09:07S 22°04' W 167°30'2 2.1 25.4
2013-Oct-08 08:21S 22°04' W 167°32'0 0.8 25.4
2013-Oct-08 08:17S 22°04' W 167°32'6 6.3 25.4
2013-Oct-08 07:23S 22°04' W 167°38'0 0.0 25.4
2013-Oct-08 06:26S 22°04' W 167°38'0 0.0 25.4
2013-Oct-08 04:44S 22°04' W 167°38'0 0.0 25.5
2013-Oct-08 03:54S 22°04' W 167°38'2 1.4 25.5
2013-Oct-08 02:24S 22°04' W 167°40'0 4.9 25.5
2013-Oct-08 02:23S 22°04' W 167°40'1 0.9 25.5
2013-Oct-08 01:38S 22°04' W 167°41'2 1.5 25.4
2013-Oct-08 00:03S 22°02' W 167°43'3 1.0 25.4
2013-Oct-07 21:29S 21°60' W 167°44'157.0 25.4
2013-Oct-07 21:28S 21°59' W 167°45'1 1.7 25.4
2013-Oct-07 20:38S 21°58' W 167°46'0 0.0 25.4
2013-Oct-07 19:49S 21°58' W 167°46'0 0.7 25.4
2013-Oct-07 19:44S 21°58' W 167°46'2 5.1 25.5
2013-Oct-07 19:15S 21°56' W 167°47'3 1.9 25.5
2013-Oct-07 17:38S 21°53' W 167°49'0 0.0 25.5
2013-Oct-07 15:59S 21°53' W 167°49'0 0.0 25.6
2013-Oct-07 13:45S 21°53' W 167°49'1 1.0 25.6
2013-Oct-07 13:11S 21°53' W 167°49'0 0.0 25.6
2013-Oct-07 13:05S 21°53' W 167°49'2 1.0 25.6
2013-Oct-07 11:31S 21°51' W 167°50'0 3.8 25.6
2013-Oct-07 11:28S 21°51' W 167°50'1 0.4 25.6
2013-Oct-07 10:14S 21°51' W 167°50'0 0.8 25.7
2013-Oct-07 10:08S 21°51' W 167°50'126.4 25.7
2013-Oct-07 10:05S 21°50' W 167°51'0 0.0 25.7
2013-Oct-07 08:39S 21°50' W 167°51'0 0.0 25.7
2013-Oct-07 08:36S 21°50' W 167°51'0 0.0 25.7
2013-Oct-07 08:33S 21°50' W 167°51'3 3.4 25.7
2013-Oct-07 07:44S 21°47' W 167°52'0 0.0
2013-Oct-07 06:54S 21°47' W 167°52'0 0.0 25.7
2013-Oct-07 05:20S 21°47' W 167°52'0 1.7 25.8
2013-Oct-07 05:14S 21°47' W 167°52'2 1.6 25.8
2013-Oct-07 04:19S 21°46' W 167°53'0 1.1 25.8
2013-Oct-07 04:09S 21°46' W 167°53'1 1.7 25.8
2013-Oct-07 03:37S 21°45' W 167°53'1 0.8 25.8
2013-Oct-07 02:34S 21°45' W 167°54'0 1.7 25.8
2013-Oct-07 02:24S 21°45' W 167°54'   25.8

Dump ship's entire track history

sailing weather and tide predictions

Buoy 51532